This is the latest recevied weather packets stored in our database for station/object N7WSS. If no packets are shown the sender has not sent any weather packets the latest 10 day(s).
| Time | Temp. | Humidity | Pressure | Rain* | Wind** | Luminosity | Snow |
|---|---|---|---|---|---|---|---|
| 1777614161 | 15.56° C | 62% | 1010.9 hPa | 0 mm | - | - | - |
| 1777613856 | 15.56° C | 63% | 1010.9 hPa | 0 mm | - | - | - |
| 1777613554 | 15.56° C | 63% | 1010.9 hPa | 0 mm | - | - | - |
| 1777613250 | 15.56° C | 64% | 1010.5 hPa | 0 mm | - | - | - |
| 1777612947 | 15.56° C | 65% | 1010.5 hPa | 0 mm | - | - | - |
| 1777612642 | 15° C | 66% | 1010.3 hPa | 0 mm | - | - | - |
| 1777612339 | 15° C | 67% | 1010.3 hPa | 0 mm | - | - | - |
| 1777612039 | 15° C | 66% | 1010.1 hPa | 0 mm | - | - | - |
| 1777611734 | 15° C | 66% | 1010.1 hPa | 0 mm | - | - | - |
| 1777611431 | 15° C | 66% | 1010 hPa | 0 mm | - | - | - |
| 1777611129 | 15° C | 66% | 1010.2 hPa | 0 mm | - | - | - |
| 1777610829 | 15° C | 66% | 1010.4 hPa | 0 mm | - | - | - |
| 1777610524 | 14.44° C | 68% | 1010.7 hPa | 0 mm | - | - | - |
| 1777610219 | 15° C | 68% | 1010.7 hPa | 0 mm | - | - | - |
| 1777609916 | 15° C | 67% | 1010.6 hPa | 0 mm | - | - | - |
| 1777609613 | 15.56° C | 65% | 1010.6 hPa | 0 mm | - | - | - |
| 1777609310 | 16.11° C | 65% | 1010.4 hPa | 0 mm | - | - | - |
| 1777609007 | 17.22° C | 63% | 1010 hPa | 0 mm | - | - | - |
| 1777608704 | 18.33° C | 56% | 1009.1 hPa | 0 mm | - | - | - |
| 1777608401 | 18.33° C | 56% | 1009 hPa | 0 mm | - | - | - |
| 1777608099 | 18.33° C | 59% | 1009 hPa | 0 mm | - | - | - |
| 1777607795 | 18.33° C | 62% | 1008.7 hPa | 0 mm | - | - | - |
| 1777607492 | 18.33° C | 60% | 1008.5 hPa | 0 mm | - | - | - |
| 1777607188 | 18.33° C | 61% | 1008.3 hPa | 0 mm | - | - | - |
| 1777606884 | 18.33° C | 62% | 1008.4 hPa | 0 mm | - | - | - |
* Rain latest hour (hover to see other rain measurements)
** Current wind speed in m/s (hover to see current wind gust speed)